sensor_id;sensor_type;location;lat;lon;timestamp;P1;durP1;ratioP1;P2;durP2;ratioP2
23123;SDS011;11731;48.592;8.858;2022-10-16T00:01:12;3.80;;;2.53;;
23123;SDS011;11731;48.592;8.858;2022-10-16T00:09:47;3.30;;;2.60;;
23123;SDS011;11731;48.592;8.858;2022-10-16T00:12:14;5.27;;;2.63;;
23123;SDS011;11731;48.592;8.858;2022-10-16T00:14:41;3.37;;;2.40;;
23123;SDS011;11731;48.592;8.858;2022-10-16T00:17:09;2.60;;;2.20;;
23123;SDS011;11731;48.592;8.858;2022-10-16T00:19:36;3.67;;;2.27;;
23123;SDS011;11731;48.592;8.858;2022-10-16T00:22:03;2.60;;;2.40;;
23123;SDS011;11731;48.592;8.858;2022-10-16T00:24:40;2.30;;;2.10;;
23123;SDS011;11731;48.592;8.858;2022-10-16T00:27:06;4.37;;;2.40;;
23123;SDS011;11731;48.592;8.858;2022-10-16T00:29:33;3.67;;;2.60;;
23123;SDS011;11731;48.592;8.858;2022-10-16T00:32:00;3.60;;;2.90;;
23123;SDS011;11731;48.592;8.858;2022-10-16T00:34:27;3.20;;;2.90;;
23123;SDS011;11731;48.592;8.858;2022-10-16T00:36:54;2.77;;;2.53;;
23123;SDS011;11731;48.592;8.858;2022-10-16T00:39:21;2.80;;;2.40;;
23123;SDS011;11731;48.592;8.858;2022-10-16T00:41:50;2.80;;;2.43;;
23123;SDS011;11731;48.592;8.858;2022-10-16T00:47:10;4.63;;;2.60;;
23123;SDS011;11731;48.592;8.858;2022-10-16T00:49:38;4.40;;;2.60;;
23123;SDS011;11731;48.592;8.858;2022-10-16T00:52:05;2.83;;;2.40;;
23123;SDS011;11731;48.592;8.858;2022-10-16T00:54:32;3.33;;;2.37;;
23123;SDS011;11731;48.592;8.858;2022-10-16T00:57:01;2.87;;;2.40;;
23123;SDS011;11731;48.592;8.858;2022-10-16T00:59:34;2.73;;;2.30;;
23123;SDS011;11731;48.592;8.858;2022-10-16T01:02:05;3.33;;;2.13;;
23123;SDS011;11731;48.592;8.858;2022-10-16T01:04:34;4.07;;;2.50;;
23123;SDS011;11731;48.592;8.858;2022-10-16T01:07:12;3.90;;;2.67;;
23123;SDS011;11731;48.592;8.858;2022-10-16T01:10:06;5.63;;;2.23;;
23123;SDS011;11731;48.592;8.858;2022-10-16T01:12:42;5.40;;;2.07;;
23123;SDS011;11731;48.592;8.858;2022-10-16T01:15:14;2.30;;;2.10;;
23123;SDS011;11731;48.592;8.858;2022-10-16T01:17:49;5.83;;;2.07;;
23123;SDS011;11731;48.592;8.858;2022-10-16T01:23:20;2.83;;;2.17;;
23123;SDS011;11731;48.592;8.858;2022-10-16T01:25:58;3.60;;;2.73;;
23123;SDS011;11731;48.592;8.858;2022-10-16T01:28:38;3.20;;;1.97;;
23123;SDS011;11731;48.592;8.858;2022-10-16T01:31:08;1.73;;;1.60;;
23123;SDS011;11731;48.592;8.858;2022-10-16T01:33:38;4.93;;;2.20;;
23123;SDS011;11731;48.592;8.858;2022-10-16T01:36:09;2.27;;;1.77;;
23123;SDS011;11731;48.592;8.858;2022-10-16T01:38:39;5.50;;;2.53;;
23123;SDS011;11731;48.592;8.858;2022-10-16T01:41:08;6.53;;;2.73;;
23123;SDS011;11731;48.592;8.858;2022-10-16T01:43:39;4.33;;;2.23;;
23123;SDS011;11731;48.592;8.858;2022-10-16T01:46:09;18.73;;;2.50;;
23123;SDS011;11731;48.592;8.858;2022-10-16T01:48:39;5.23;;;2.77;;
23123;SDS011;11731;48.592;8.858;2022-10-16T01:51:08;5.17;;;2.60;;
23123;SDS011;11731;48.592;8.858;2022-10-16T01:53:37;6.50;;;3.50;;
23123;SDS011;11731;48.592;8.858;2022-10-16T01:56:06;6.00;;;2.93;;
23123;SDS011;11731;48.592;8.858;2022-10-16T01:58:36;4.40;;;2.33;;
23123;SDS011;11731;48.592;8.858;2022-10-16T02:01:08;3.63;;;2.70;;
23123;SDS011;11731;48.592;8.858;2022-10-16T02:03:37;6.03;;;2.50;;
23123;SDS011;11731;48.592;8.858;2022-10-16T02:06:08;2.53;;;2.17;;
23123;SDS011;11731;48.592;8.858;2022-10-16T02:08:35;4.43;;;2.50;;
23123;SDS011;11731;48.592;8.858;2022-10-16T02:11:04;3.97;;;2.43;;
23123;SDS011;11731;48.592;8.858;2022-10-16T02:13:32;4.07;;;2.00;;
23123;SDS011;11731;48.592;8.858;2022-10-16T02:16:04;4.20;;;2.00;;
23123;SDS011;11731;48.592;8.858;2022-10-16T02:18:32;1.87;;;1.63;;
23123;SDS011;11731;48.592;8.858;2022-10-16T02:21:00;7.40;;;2.00;;
23123;SDS011;11731;48.592;8.858;2022-10-16T02:23:34;6.63;;;2.50;;
23123;SDS011;11731;48.592;8.858;2022-10-16T02:26:09;3.13;;;2.20;;
23123;SDS011;11731;48.592;8.858;2022-10-16T02:28:42;3.13;;;2.40;;
23123;SDS011;11731;48.592;8.858;2022-10-16T02:31:15;2.87;;;2.17;;
23123;SDS011;11731;48.592;8.858;2022-10-16T02:33:46;4.43;;;2.30;;
23123;SDS011;11731;48.592;8.858;2022-10-16T02:36:13;5.13;;;2.27;;
23123;SDS011;11731;48.592;8.858;2022-10-16T02:38:40;3.70;;;2.43;;
23123;SDS011;11731;48.592;8.858;2022-10-16T02:41:07;6.90;;;2.30;;
23123;SDS011;11731;48.592;8.858;2022-10-16T02:43:35;3.47;;;2.17;;
23123;SDS011;11731;48.592;8.858;2022-10-16T02:46:02;3.80;;;2.13;;
23123;SDS011;11731;48.592;8.858;2022-10-16T02:48:37;2.60;;;2.23;;
23123;SDS011;11731;48.592;8.858;2022-10-16T02:51:04;2.30;;;2.10;;
23123;SDS011;11731;48.592;8.858;2022-10-16T02:53:32;4.87;;;2.10;;
23123;SDS011;11731;48.592;8.858;2022-10-16T02:55:59;4.33;;;2.37;;
23123;SDS011;11731;48.592;8.858;2022-10-16T02:58:25;2.20;;;2.00;;
23123;SDS011;11731;48.592;8.858;2022-10-16T03:00:52;3.27;;;2.47;;
23123;SDS011;11731;48.592;8.858;2022-10-16T03:03:20;7.90;;;2.27;;
23123;SDS011;11731;48.592;8.858;2022-10-16T03:05:49;4.37;;;2.20;;
23123;SDS011;11731;48.592;8.858;2022-10-16T03:08:15;1.90;;;1.70;;
23123;SDS011;11731;48.592;8.858;2022-10-16T03:10:48;2.60;;;2.10;;
23123;SDS011;11731;48.592;8.858;2022-10-16T03:13:15;2.27;;;1.90;;
23123;SDS011;11731;48.592;8.858;2022-10-16T03:15:42;2.63;;;1.63;;
23123;SDS011;11731;48.592;8.858;2022-10-16T03:18:09;3.90;;;1.80;;
23123;SDS011;11731;48.592;8.858;2022-10-16T03:20:36;2.30;;;2.07;;
23123;SDS011;11731;48.592;8.858;2022-10-16T03:23:04;5.40;;;1.83;;
23123;SDS011;11731;48.592;8.858;2022-10-16T03:25:33;3.10;;;1.97;;
23123;SDS011;11731;48.592;8.858;2022-10-16T03:27:59;2.50;;;2.03;;
23123;SDS011;11731;48.592;8.858;2022-10-16T03:30:26;2.30;;;1.93;;
23123;SDS011;11731;48.592;8.858;2022-10-16T03:32:53;2.43;;;1.80;;
23123;SDS011;11731;48.592;8.858;2022-10-16T03:35:20;2.00;;;1.80;;
23123;SDS011;11731;48.592;8.858;2022-10-16T03:37:47;3.93;;;2.13;;
23123;SDS011;11731;48.592;8.858;2022-10-16T03:40:16;1.90;;;1.80;;
23123;SDS011;11731;48.592;8.858;2022-10-16T03:42:43;3.63;;;1.73;;
23123;SDS011;11731;48.592;8.858;2022-10-16T03:45:10;1.70;;;1.60;;
23123;SDS011;11731;48.592;8.858;2022-10-16T03:47:37;3.30;;;2.13;;
23123;SDS011;11731;48.592;8.858;2022-10-16T03:50:04;2.70;;;2.30;;
23123;SDS011;11731;48.592;8.858;2022-10-16T03:52:32;2.70;;;2.30;;
23123;SDS011;11731;48.592;8.858;2022-10-16T03:54:59;2.87;;;2.07;;
23123;SDS011;11731;48.592;8.858;2022-10-16T03:57:27;3.80;;;2.10;;
23123;SDS011;11731;48.592;8.858;2022-10-16T03:59:54;2.00;;;1.80;;
23123;SDS011;11731;48.592;8.858;2022-10-16T04:02:21;3.70;;;2.07;;
23123;SDS011;11731;48.592;8.858;2022-10-16T04:04:48;5.10;;;2.50;;
23123;SDS011;11731;48.592;8.858;2022-10-16T04:07:14;4.17;;;2.33;;
23123;SDS011;11731;48.592;8.858;2022-10-16T04:09:41;3.83;;;2.50;;
23123;SDS011;11731;48.592;8.858;2022-10-16T04:12:08;2.33;;;2.10;;
23123;SDS011;11731;48.592;8.858;2022-10-16T04:14:36;2.20;;;1.83;;
23123;SDS011;11731;48.592;8.858;2022-10-16T04:17:03;6.03;;;3.43;;
23123;SDS011;11731;48.592;8.858;2022-10-16T04:19:30;4.37;;;2.20;;
23123;SDS011;11731;48.592;8.858;2022-10-16T04:21:57;2.33;;;2.07;;
23123;SDS011;11731;48.592;8.858;2022-10-16T04:24:24;5.03;;;1.97;;
23123;SDS011;11731;48.592;8.858;2022-10-16T04:26:50;4.10;;;1.77;;
23123;SDS011;11731;48.592;8.858;2022-10-16T04:29:17;2.70;;;2.03;;
23123;SDS011;11731;48.592;8.858;2022-10-16T04:31:46;4.27;;;1.90;;
23123;SDS011;11731;48.592;8.858;2022-10-16T04:34:13;3.27;;;2.10;;
23123;SDS011;11731;48.592;8.858;2022-10-16T04:36:39;3.10;;;2.10;;
23123;SDS011;11731;48.592;8.858;2022-10-16T04:39:06;4.47;;;2.23;;
23123;SDS011;11731;48.592;8.858;2022-10-16T04:41:33;3.73;;;2.30;;
23123;SDS011;11731;48.592;8.858;2022-10-16T04:44:00;3.73;;;1.80;;
23123;SDS011;11731;48.592;8.858;2022-10-16T04:46:27;2.03;;;1.83;;
23123;SDS011;11731;48.592;8.858;2022-10-16T04:48:55;5.83;;;2.07;;
23123;SDS011;11731;48.592;8.858;2022-10-16T04:51:22;3.57;;;2.30;;
23123;SDS011;11731;48.592;8.858;2022-10-16T04:53:50;2.07;;;1.97;;
23123;SDS011;11731;48.592;8.858;2022-10-16T04:56:17;4.37;;;2.40;;
23123;SDS011;11731;48.592;8.858;2022-10-16T04:58:44;3.43;;;2.17;;
23123;SDS011;11731;48.592;8.858;2022-10-16T05:01:11;3.23;;;2.37;;
23123;SDS011;11731;48.592;8.858;2022-10-16T05:03:38;5.10;;;2.30;;
23123;SDS011;11731;48.592;8.858;2022-10-16T05:06:06;7.13;;;2.30;;
23123;SDS011;11731;48.592;8.858;2022-10-16T05:08:33;2.97;;;2.10;;
23123;SDS011;11731;48.592;8.858;2022-10-16T05:11:00;2.43;;;2.20;;
23123;SDS011;11731;48.592;8.858;2022-10-16T05:13:27;4.70;;;2.00;;
23123;SDS011;11731;48.592;8.858;2022-10-16T05:15:54;2.10;;;1.90;;
23123;SDS011;11731;48.592;8.858;2022-10-16T05:18:22;3.20;;;1.70;;
23123;SDS011;11731;48.592;8.858;2022-10-16T05:20:49;3.33;;;2.60;;
23123;SDS011;11731;48.592;8.858;2022-10-16T05:23:17;3.40;;;1.83;;
23123;SDS011;11731;48.592;8.858;2022-10-16T05:25:51;2.20;;;2.00;;
23123;SDS011;11731;48.592;8.858;2022-10-16T05:28:19;4.00;;;2.37;;
23123;SDS011;11731;48.592;8.858;2022-10-16T05:30:46;2.00;;;1.73;;
23123;SDS011;11731;48.592;8.858;2022-10-16T05:33:13;6.03;;;2.13;;
23123;SDS011;11731;48.592;8.858;2022-10-16T05:35:39;2.10;;;1.83;;
23123;SDS011;11731;48.592;8.858;2022-10-16T05:38:06;7.43;;;1.80;;
23123;SDS011;11731;48.592;8.858;2022-10-16T05:40:34;1.80;;;1.70;;
23123;SDS011;11731;48.592;8.858;2022-10-16T05:43:01;3.60;;;1.87;;
23123;SDS011;11731;48.592;8.858;2022-10-16T05:45:28;4.23;;;1.97;;
23123;SDS011;11731;48.592;8.858;2022-10-16T05:47:55;4.53;;;2.17;;
23123;SDS011;11731;48.592;8.858;2022-10-16T05:50:22;3.70;;;1.83;;
23123;SDS011;11731;48.592;8.858;2022-10-16T05:52:49;2.40;;;2.07;;
23123;SDS011;11731;48.592;8.858;2022-10-16T05:55:16;3.60;;;2.30;;
23123;SDS011;11731;48.592;8.858;2022-10-16T05:57:44;2.90;;;1.80;;
23123;SDS011;11731;48.592;8.858;2022-10-16T06:00:11;2.23;;;2.03;;
23123;SDS011;11731;48.592;8.858;2022-10-16T06:02:38;9.40;;;3.10;;
23123;SDS011;11731;48.592;8.858;2022-10-16T06:05:05;2.40;;;2.20;;
23123;SDS011;11731;48.592;8.858;2022-10-16T06:07:34;6.57;;;1.73;;
23123;SDS011;11731;48.592;8.858;2022-10-16T06:10:01;5.20;;;1.80;;
23123;SDS011;11731;48.592;8.858;2022-10-16T06:12:29;2.13;;;1.93;;
23123;SDS011;11731;48.592;8.858;2022-10-16T06:14:57;5.00;;;2.07;;
23123;SDS011;11731;48.592;8.858;2022-10-16T06:17:24;2.20;;;1.97;;
23123;SDS011;11731;48.592;8.858;2022-10-16T06:19:51;4.30;;;2.10;;
23123;SDS011;11731;48.592;8.858;2022-10-16T06:22:18;2.70;;;1.70;;
23123;SDS011;11731;48.592;8.858;2022-10-16T06:24:45;3.77;;;2.10;;
23123;SDS011;11731;48.592;8.858;2022-10-16T06:27:12;6.10;;;2.13;;
23123;SDS011;11731;48.592;8.858;2022-10-16T06:29:39;3.07;;;1.83;;
23123;SDS011;11731;48.592;8.858;2022-10-16T06:32:09;4.77;;;2.23;;
23123;SDS011;11731;48.592;8.858;2022-10-16T06:34:36;2.00;;;1.90;;
23123;SDS011;11731;48.592;8.858;2022-10-16T06:37:05;5.60;;;2.10;;
23123;SDS011;11731;48.592;8.858;2022-10-16T06:39:31;3.83;;;2.00;;
23123;SDS011;11731;48.592;8.858;2022-10-16T06:41:58;2.70;;;2.00;;
23123;SDS011;11731;48.592;8.858;2022-10-16T06:44:25;2.50;;;2.10;;
23123;SDS011;11731;48.592;8.858;2022-10-16T06:46:52;2.03;;;1.83;;
23123;SDS011;11731;48.592;8.858;2022-10-16T06:49:20;1.70;;;1.60;;
23123;SDS011;11731;48.592;8.858;2022-10-16T06:51:48;3.00;;;1.70;;
23123;SDS011;11731;48.592;8.858;2022-10-16T06:54:15;2.07;;;1.87;;
23123;SDS011;11731;48.592;8.858;2022-10-16T06:56:42;2.63;;;1.90;;
23123;SDS011;11731;48.592;8.858;2022-10-16T06:59:09;2.07;;;1.87;;
23123;SDS011;11731;48.592;8.858;2022-10-16T07:01:36;4.57;;;2.57;;
23123;SDS011;11731;48.592;8.858;2022-10-16T07:04:03;3.53;;;2.23;;
23123;SDS011;11731;48.592;8.858;2022-10-16T07:06:32;3.07;;;2.27;;
23123;SDS011;11731;48.592;8.858;2022-10-16T07:09:00;2.97;;;2.17;;
23123;SDS011;11731;48.592;8.858;2022-10-16T07:11:31;3.90;;;2.20;;
23123;SDS011;11731;48.592;8.858;2022-10-16T07:13:59;3.73;;;2.40;;
23123;SDS011;11731;48.592;8.858;2022-10-16T07:16:26;4.23;;;2.57;;
23123;SDS011;11731;48.592;8.858;2022-10-16T07:18:54;2.63;;;2.10;;
23123;SDS011;11731;48.592;8.858;2022-10-16T07:21:24;3.40;;;2.30;;
23123;SDS011;11731;48.592;8.858;2022-10-16T07:23:56;4.17;;;2.37;;
23123;SDS011;11731;48.592;8.858;2022-10-16T07:26:24;3.10;;;2.40;;
23123;SDS011;11731;48.592;8.858;2022-10-16T07:28:53;2.27;;;2.07;;
23123;SDS011;11731;48.592;8.858;2022-10-16T07:31:20;2.57;;;2.30;;
23123;SDS011;11731;48.592;8.858;2022-10-16T07:33:48;3.37;;;2.40;;
23123;SDS011;11731;48.592;8.858;2022-10-16T07:36:15;4.07;;;2.20;;
23123;SDS011;11731;48.592;8.858;2022-10-16T07:38:43;3.07;;;2.40;;
23123;SDS011;11731;48.592;8.858;2022-10-16T07:41:12;2.73;;;2.53;;
23123;SDS011;11731;48.592;8.858;2022-10-16T07:43:40;4.30;;;2.00;;
23123;SDS011;11731;48.592;8.858;2022-10-16T07:46:12;4.47;;;1.70;;
23123;SDS011;11731;48.592;8.858;2022-10-16T07:48:39;5.37;;;2.00;;
23123;SDS011;11731;48.592;8.858;2022-10-16T07:51:10;1.80;;;1.60;;
23123;SDS011;11731;48.592;8.858;2022-10-16T07:53:37;2.83;;;2.03;;
23123;SDS011;11731;48.592;8.858;2022-10-16T07:56:05;2.50;;;1.70;;
23123;SDS011;11731;48.592;8.858;2022-10-16T07:58:37;3.03;;;2.00;;
23123;SDS011;11731;48.592;8.858;2022-10-16T08:01:05;6.67;;;2.37;;
23123;SDS011;11731;48.592;8.858;2022-10-16T08:03:34;3.23;;;2.13;;
23123;SDS011;11731;48.592;8.858;2022-10-16T08:06:01;2.30;;;1.63;;
23123;SDS011;11731;48.592;8.858;2022-10-16T08:08:29;2.33;;;1.90;;
23123;SDS011;11731;48.592;8.858;2022-10-16T08:10:56;5.87;;;2.13;;
23123;SDS011;11731;48.592;8.858;2022-10-16T08:13:23;3.77;;;1.80;;
23123;SDS011;11731;48.592;8.858;2022-10-16T08:15:53;4.53;;;2.43;;
23123;SDS011;11731;48.592;8.858;2022-10-16T08:18:20;4.03;;;1.77;;
23123;SDS011;11731;48.592;8.858;2022-10-16T08:20:47;5.13;;;2.37;;
23123;SDS011;11731;48.592;8.858;2022-10-16T08:23:14;4.13;;;1.70;;
23123;SDS011;11731;48.592;8.858;2022-10-16T08:25:41;1.93;;;1.67;;
23123;SDS011;11731;48.592;8.858;2022-10-16T08:28:09;2.70;;;1.93;;
23123;SDS011;11731;48.592;8.858;2022-10-16T08:30:37;2.03;;;1.67;;
23123;SDS011;11731;48.592;8.858;2022-10-16T08:33:05;2.63;;;1.63;;
23123;SDS011;11731;48.592;8.858;2022-10-16T08:35:32;2.67;;;1.80;;
23123;SDS011;11731;48.592;8.858;2022-10-16T08:37:59;1.73;;;1.40;;
23123;SDS011;11731;48.592;8.858;2022-10-16T08:40:29;3.10;;;1.60;;
23123;SDS011;11731;48.592;8.858;2022-10-16T08:43:20;2.80;;;1.40;;
23123;SDS011;11731;48.592;8.858;2022-10-16T08:46:05;3.00;;;1.90;;
23123;SDS011;11731;48.592;8.858;2022-10-16T08:48:49;2.57;;;1.90;;
23123;SDS011;11731;48.592;8.858;2022-10-16T08:51:18;2.80;;;1.60;;
23123;SDS011;11731;48.592;8.858;2022-10-16T08:53:49;2.83;;;1.97;;
23123;SDS011;11731;48.592;8.858;2022-10-16T08:56:20;2.33;;;1.67;;
23123;SDS011;11731;48.592;8.858;2022-10-16T08:58:47;2.83;;;1.90;;
23123;SDS011;11731;48.592;8.858;2022-10-16T09:01:17;3.23;;;1.63;;
23123;SDS011;11731;48.592;8.858;2022-10-16T09:10:17;4.10;;;2.47;;
23123;SDS011;11731;48.592;8.858;2022-10-16T09:12:53;3.23;;;1.73;;
23123;SDS011;11731;48.592;8.858;2022-10-16T09:15:29;4.30;;;1.80;;
23123;SDS011;11731;48.592;8.858;2022-10-16T09:18:02;3.90;;;1.90;;
23123;SDS011;11731;48.592;8.858;2022-10-16T09:20:39;4.73;;;2.00;;
23123;SDS011;11731;48.592;8.858;2022-10-16T09:23:16;3.50;;;1.83;;
23123;SDS011;11731;48.592;8.858;2022-10-16T09:25:47;2.70;;;1.97;;
23123;SDS011;11731;48.592;8.858;2022-10-16T09:28:15;2.47;;;1.67;;
23123;SDS011;11731;48.592;8.858;2022-10-16T09:30:43;3.90;;;1.63;;
23123;SDS011;11731;48.592;8.858;2022-10-16T09:33:11;4.70;;;1.70;;
23123;SDS011;11731;48.592;8.858;2022-10-16T09:35:40;4.40;;;1.60;;
23123;SDS011;11731;48.592;8.858;2022-10-16T09:38:08;1.60;;;1.50;;
23123;SDS011;11731;48.592;8.858;2022-10-16T09:44:03;2.77;;;1.40;;
23123;SDS011;11731;48.592;8.858;2022-10-16T09:46:41;2.20;;;1.67;;
23123;SDS011;11731;48.592;8.858;2022-10-16T09:49:24;2.77;;;1.60;;
23123;SDS011;11731;48.592;8.858;2022-10-16T09:52:03;4.30;;;1.80;;
23123;SDS011;11731;48.592;8.858;2022-10-16T09:54:59;2.90;;;1.63;;
23123;SDS011;11731;48.592;8.858;2022-10-16T09:57:35;4.20;;;1.60;;
23123;SDS011;11731;48.592;8.858;2022-10-16T10:00:18;2.90;;;1.33;;
23123;SDS011;11731;48.592;8.858;2022-10-16T10:02:46;2.20;;;1.47;;
23123;SDS011;11731;48.592;8.858;2022-10-16T10:05:31;2.30;;;1.30;;
23123;SDS011;11731;48.592;8.858;2022-10-16T10:07:59;2.07;;;1.30;;
23123;SDS011;11731;48.592;8.858;2022-10-16T10:10:31;4.53;;;1.40;;
23123;SDS011;11731;48.592;8.858;2022-10-16T10:13:03;1.53;;;1.30;;
23123;SDS011;11731;48.592;8.858;2022-10-16T10:15:34;1.30;;;1.20;;
23123;SDS011;11731;48.592;8.858;2022-10-16T10:18:16;2.07;;;1.33;;
23123;SDS011;11731;48.592;8.858;2022-10-16T10:20:56;1.97;;;1.20;;
23123;SDS011;11731;48.592;8.858;2022-10-16T10:23:25;1.80;;;1.10;;
23123;SDS011;11731;48.592;8.858;2022-10-16T10:25:55;2.70;;;1.27;;
23123;SDS011;11731;48.592;8.858;2022-10-16T10:28:38;3.33;;;1.47;;
23123;SDS011;11731;48.592;8.858;2022-10-16T10:31:19;3.10;;;1.80;;
23123;SDS011;11731;48.592;8.858;2022-10-16T10:33:52;2.13;;;1.37;;
23123;SDS011;11731;48.592;8.858;2022-10-16T10:39:49;4.93;;;1.30;;
23123;SDS011;11731;48.592;8.858;2022-10-16T10:42:28;2.80;;;1.37;;
23123;SDS011;11731;48.592;8.858;2022-10-16T10:45:03;1.50;;;1.20;;
23123;SDS011;11731;48.592;8.858;2022-10-16T10:47:56;1.33;;;1.23;;
23123;SDS011;11731;48.592;8.858;2022-10-16T10:50:33;2.23;;;1.23;;
23123;SDS011;11731;48.592;8.858;2022-10-16T10:53:09;3.17;;;1.27;;
23123;SDS011;11731;48.592;8.858;2022-10-16T10:55:45;6.87;;;1.63;;
23123;SDS011;11731;48.592;8.858;2022-10-16T10:58:21;4.67;;;1.30;;
23123;SDS011;11731;48.592;8.858;2022-10-16T11:01:20;4.40;;;1.30;;
23123;SDS011;11731;48.592;8.858;2022-10-16T11:04:11;2.13;;;1.23;;
23123;SDS011;11731;48.592;8.858;2022-10-16T11:07:09;1.53;;;1.43;;
23123;SDS011;11731;48.592;8.858;2022-10-16T11:09:42;1.70;;;1.20;;
23123;SDS011;11731;48.592;8.858;2022-10-16T11:12:14;2.23;;;1.40;;
23123;SDS011;11731;48.592;8.858;2022-10-16T11:14:45;1.40;;;1.30;;
23123;SDS011;11731;48.592;8.858;2022-10-16T11:17:17;1.47;;;1.20;;
23123;SDS011;11731;48.592;8.858;2022-10-16T11:19:49;1.47;;;1.37;;
23123;SDS011;11731;48.592;8.858;2022-10-16T11:22:22;3.90;;;1.33;;
23123;SDS011;11731;48.592;8.858;2022-10-16T11:24:53;1.13;;;1.03;;
23123;SDS011;11731;48.592;8.858;2022-10-16T11:27:34;2.90;;;1.30;;
23123;SDS011;11731;48.592;8.858;2022-10-16T11:30:04;1.50;;;1.33;;
23123;SDS011;11731;48.592;8.858;2022-10-16T11:32:39;2.67;;;1.40;;
23123;SDS011;11731;48.592;8.858;2022-10-16T11:35:19;5.10;;;1.43;;
23123;SDS011;11731;48.592;8.858;2022-10-16T11:37:50;3.23;;;1.40;;
23123;SDS011;11731;48.592;8.858;2022-10-16T11:40:33;3.07;;;2.77;;
23123;SDS011;11731;48.592;8.858;2022-10-16T11:43:25;2.00;;;1.47;;
23123;SDS011;11731;48.592;8.858;2022-10-16T11:45:55;1.53;;;1.20;;
23123;SDS011;11731;48.592;8.858;2022-10-16T11:48:26;2.90;;;1.50;;
23123;SDS011;11731;48.592;8.858;2022-10-16T11:51:00;2.33;;;1.47;;
23123;SDS011;11731;48.592;8.858;2022-10-16T11:53:45;3.27;;;1.67;;
23123;SDS011;11731;48.592;8.858;2022-10-16T11:56:17;4.03;;;1.60;;
23123;SDS011;11731;48.592;8.858;2022-10-16T11:58:54;1.93;;;1.30;;
23123;SDS011;11731;48.592;8.858;2022-10-16T12:01:27;1.40;;;1.30;;
23123;SDS011;11731;48.592;8.858;2022-10-16T12:06:51;3.73;;;1.37;;
23123;SDS011;11731;48.592;8.858;2022-10-16T12:09:24;2.37;;;1.60;;
23123;SDS011;11731;48.592;8.858;2022-10-16T12:14:59;1.50;;;1.40;;
23123;SDS011;11731;48.592;8.858;2022-10-16T12:17:27;2.37;;;1.10;;
23123;SDS011;11731;48.592;8.858;2022-10-16T12:20:15;1.50;;;1.30;;
23123;SDS011;11731;48.592;8.858;2022-10-16T12:22:53;2.03;;;1.40;;
23123;SDS011;11731;48.592;8.858;2022-10-16T12:25:22;1.13;;;1.03;;
23123;SDS011;11731;48.592;8.858;2022-10-16T12:27:56;2.43;;;1.40;;
23123;SDS011;11731;48.592;8.858;2022-10-16T12:30:26;1.80;;;1.27;;
23123;SDS011;11731;48.592;8.858;2022-10-16T12:32:55;3.13;;;1.70;;
23123;SDS011;11731;48.592;8.858;2022-10-16T12:35:33;2.40;;;1.33;;
23123;SDS011;11731;48.592;8.858;2022-10-16T12:38:14;1.40;;;1.30;;
23123;SDS011;11731;48.592;8.858;2022-10-16T12:40:43;2.53;;;1.30;;
23123;SDS011;11731;48.592;8.858;2022-10-16T12:43:35;2.70;;;1.60;;
23123;SDS011;11731;48.592;8.858;2022-10-16T12:46:05;3.20;;;1.30;;
23123;SDS011;11731;48.592;8.858;2022-10-16T12:51:59;1.67;;;1.40;;
23123;SDS011;11731;48.592;8.858;2022-10-16T12:54:29;4.60;;;1.47;;
23123;SDS011;11731;48.592;8.858;2022-10-16T12:57:01;3.27;;;1.70;;
23123;SDS011;11731;48.592;8.858;2022-10-16T12:59:56;3.67;;;1.53;;
23123;SDS011;11731;48.592;8.858;2022-10-16T13:03:41;7.10;;;1.57;;
23123;SDS011;11731;48.592;8.858;2022-10-16T13:06:05;3.37;;;1.50;;
23123;SDS011;11731;48.592;8.858;2022-10-16T13:08:56;4.00;;;1.70;;
23123;SDS011;11731;48.592;8.858;2022-10-16T13:17:43;2.43;;;1.27;;
23123;SDS011;11731;48.592;8.858;2022-10-16T13:20:18;1.50;;;1.40;;
23123;SDS011;11731;48.592;8.858;2022-10-16T13:22:54;4.43;;;1.30;;
23123;SDS011;11731;48.592;8.858;2022-10-16T13:25:32;4.60;;;1.43;;
23123;SDS011;11731;48.592;8.858;2022-10-16T13:28:11;2.07;;;1.50;;
23123;SDS011;11731;48.592;8.858;2022-10-16T13:30:39;2.20;;;1.30;;
23123;SDS011;11731;48.592;8.858;2022-10-16T13:35:21;2.93;;;1.50;;
23123;SDS011;11731;48.592;8.858;2022-10-16T13:37:02;2.80;;;1.33;;
23123;SDS011;11731;48.592;8.858;2022-10-16T13:46:03;6.03;;;1.53;;
23123;SDS011;11731;48.592;8.858;2022-10-16T13:48:33;3.03;;;1.70;;
23123;SDS011;11731;48.592;8.858;2022-10-16T13:51:04;4.80;;;1.70;;
23123;SDS011;11731;48.592;8.858;2022-10-16T13:53:33;3.00;;;1.53;;
23123;SDS011;11731;48.592;8.858;2022-10-16T13:56:02;2.30;;;1.70;;
23123;SDS011;11731;48.592;8.858;2022-10-16T13:58:31;2.83;;;1.63;;
23123;SDS011;11731;48.592;8.858;2022-10-16T14:01:05;3.73;;;1.67;;
23123;SDS011;11731;48.592;8.858;2022-10-16T14:03:41;1.33;;;1.23;;
23123;SDS011;11731;48.592;8.858;2022-10-16T14:06:11;4.23;;;1.50;;
23123;SDS011;11731;48.592;8.858;2022-10-16T14:08:43;2.13;;;1.37;;
23123;SDS011;11731;48.592;8.858;2022-10-16T14:11:12;3.47;;;1.47;;
23123;SDS011;11731;48.592;8.858;2022-10-16T14:13:46;2.40;;;1.30;;
23123;SDS011;11731;48.592;8.858;2022-10-16T14:16:17;1.47;;;1.37;;
23123;SDS011;11731;48.592;8.858;2022-10-16T14:18:46;2.90;;;1.60;;
23123;SDS011;11731;48.592;8.858;2022-10-16T14:21:22;3.57;;;1.80;;
23123;SDS011;11731;48.592;8.858;2022-10-16T14:23:49;2.20;;;1.50;;
23123;SDS011;11731;48.592;8.858;2022-10-16T14:26:18;3.77;;;1.40;;
23123;SDS011;11731;48.592;8.858;2022-10-16T14:28:46;1.77;;;1.67;;
23123;SDS011;11731;48.592;8.858;2022-10-16T14:31:26;1.90;;;1.60;;
23123;SDS011;11731;48.592;8.858;2022-10-16T14:33:55;1.40;;;1.30;;
23123;SDS011;11731;48.592;8.858;2022-10-16T14:36:22;3.47;;;1.70;;
23123;SDS011;11731;48.592;8.858;2022-10-16T14:38:54;3.30;;;1.50;;
23123;SDS011;11731;48.592;8.858;2022-10-16T14:41:25;4.20;;;1.40;;
23123;SDS011;11731;48.592;8.858;2022-10-16T14:43:53;1.83;;;1.60;;
23123;SDS011;11731;48.592;8.858;2022-10-16T14:46:22;2.80;;;1.67;;
23123;SDS011;11731;48.592;8.858;2022-10-16T14:48:58;3.70;;;1.57;;
23123;SDS011;11731;48.592;8.858;2022-10-16T14:51:28;5.13;;;1.60;;
23123;SDS011;11731;48.592;8.858;2022-10-16T14:53:55;3.33;;;1.60;;
23123;SDS011;11731;48.592;8.858;2022-10-16T14:56:23;3.33;;;1.43;;
23123;SDS011;11731;48.592;8.858;2022-10-16T14:58:51;2.37;;;1.40;;
23123;SDS011;11731;48.592;8.858;2022-10-16T15:01:19;2.77;;;1.63;;
23123;SDS011;11731;48.592;8.858;2022-10-16T15:06:30;4.37;;;1.83;;
23123;SDS011;11731;48.592;8.858;2022-10-16T15:08:57;3.03;;;1.73;;
23123;SDS011;11731;48.592;8.858;2022-10-16T15:11:24;1.40;;;1.30;;
23123;SDS011;11731;48.592;8.858;2022-10-16T15:13:51;2.33;;;1.80;;
23123;SDS011;11731;48.592;8.858;2022-10-16T15:16:18;2.70;;;1.60;;
23123;SDS011;11731;48.592;8.858;2022-10-16T15:18:45;5.40;;;1.93;;
23123;SDS011;11731;48.592;8.858;2022-10-16T15:21:15;2.53;;;1.30;;
23123;SDS011;11731;48.592;8.858;2022-10-16T15:23:56;4.10;;;1.83;;
23123;SDS011;11731;48.592;8.858;2022-10-16T15:26:25;3.33;;;1.60;;
23123;SDS011;11731;48.592;8.858;2022-10-16T15:28:52;6.47;;;1.60;;
23123;SDS011;11731;48.592;8.858;2022-10-16T15:31:20;3.73;;;1.80;;
23123;SDS011;11731;48.592;8.858;2022-10-16T15:33:49;1.90;;;1.60;;
23123;SDS011;11731;48.592;8.858;2022-10-16T15:36:25;3.43;;;1.80;;
23123;SDS011;11731;48.592;8.858;2022-10-16T15:38:53;3.77;;;1.90;;
23123;SDS011;11731;48.592;8.858;2022-10-16T15:41:23;3.27;;;1.77;;
23123;SDS011;11731;48.592;8.858;2022-10-16T15:43:50;3.67;;;1.87;;
23123;SDS011;11731;48.592;8.858;2022-10-16T15:46:18;3.57;;;1.90;;
23123;SDS011;11731;48.592;8.858;2022-10-16T15:48:49;2.63;;;1.93;;
23123;SDS011;11731;48.592;8.858;2022-10-16T15:51:17;1.77;;;1.60;;
23123;SDS011;11731;48.592;8.858;2022-10-16T15:53:45;5.83;;;2.10;;
23123;SDS011;11731;48.592;8.858;2022-10-16T15:56:13;2.87;;;1.80;;
23123;SDS011;11731;48.592;8.858;2022-10-16T15:58:40;5.20;;;2.07;;
23123;SDS011;11731;48.592;8.858;2022-10-16T16:01:08;1.83;;;1.73;;